createdAt,value
2018-12-11T00:00:20.400Z,28.90
2018-12-11T00:02:54.556Z,28.90
2018-12-11T00:05:30.799Z,28.90
2018-12-11T00:08:04.630Z,28.90
2018-12-11T00:10:39.890Z,28.90
2018-12-11T00:13:16.018Z,28.90
2018-12-11T00:15:50.337Z,28.90
2018-12-11T00:18:25.746Z,29.00
2018-12-11T00:21:00.151Z,29.00
2018-12-11T00:23:34.421Z,29.00
2018-12-11T00:26:08.442Z,29.00
2018-12-11T00:28:43.841Z,29.00
2018-12-11T00:31:17.881Z,29.00
2018-12-11T00:33:51.599Z,29.10
2018-12-11T00:36:27.796Z,29.10
2018-12-11T00:39:01.867Z,29.10
2018-12-11T00:41:35.588Z,29.10
2018-12-11T00:44:10.490Z,29.10
2018-12-11T00:46:45.841Z,29.20
2018-12-11T00:49:21.755Z,29.20
2018-12-11T00:51:55.898Z,29.20
2018-12-11T00:54:29.839Z,29.30
2018-12-11T00:57:03.958Z,29.30
2018-12-11T00:59:39.458Z,29.30
2018-12-11T01:02:13.759Z,29.40
2018-12-11T01:04:44.131Z,29.40
2018-12-11T01:07:18.390Z,29.50
2018-12-11T01:09:52.767Z,29.50
2018-12-11T01:12:29.947Z,29.60
2018-12-11T01:15:04.480Z,29.60
2018-12-11T01:17:38.528Z,29.70
2018-12-11T01:20:13.729Z,29.70
2018-12-11T01:22:49.063Z,29.70
2018-12-11T01:25:23.393Z,29.80
2018-12-11T01:27:57.955Z,29.80
2018-12-11T01:30:32.076Z,29.80
2018-12-11T01:33:07.722Z,29.90
2018-12-11T01:35:45.272Z,29.90
2018-12-11T01:38:24.724Z,29.90
2018-12-11T01:41:00.842Z,29.90
2018-12-11T01:43:35.786Z,29.90
2018-12-11T01:46:09.937Z,29.90
2018-12-11T01:48:47.594Z,30.00
2018-12-11T01:51:22.287Z,30.00
2018-12-11T01:53:57.261Z,30.00
2018-12-11T01:56:31.456Z,30.00
2018-12-11T01:59:05.465Z,30.10
2018-12-11T02:01:40.221Z,30.10
2018-12-11T02:04:14.152Z,30.10
2018-12-11T02:06:48.231Z,30.10
2018-12-11T02:09:22.219Z,30.20
2018-12-11T02:11:56.913Z,30.20
2018-12-11T02:14:30.855Z,30.30
2018-12-11T02:17:05.787Z,30.40
2018-12-11T02:19:39.968Z,30.40
2018-12-11T02:22:15.437Z,30.50
2018-12-11T02:24:49.770Z,30.50
2018-12-11T02:27:23.672Z,30.60
2018-12-11T02:29:57.897Z,30.70
2018-12-11T02:32:31.905Z,30.80
2018-12-11T02:35:06.886Z,30.90
2018-12-11T02:37:40.972Z,31.10
2018-12-11T02:40:14.947Z,31.10
2018-12-11T02:42:50.005Z,31.20
2018-12-11T02:45:24.680Z,31.40
2018-12-11T02:47:58.485Z,31.50
2018-12-11T02:50:32.711Z,31.60
2018-12-11T02:53:06.730Z,31.70
2018-12-11T02:55:41.250Z,31.80
2018-12-11T02:58:15.320Z,31.90
2018-12-11T03:00:50.036Z,32.00
2018-12-11T03:03:24.122Z,32.10
2018-12-11T03:05:59.068Z,32.10
2018-12-11T03:08:33.514Z,32.20
2018-12-11T03:11:07.403Z,32.30
2018-12-11T03:13:41.546Z,32.40
2018-12-11T03:16:15.359Z,32.50
2018-12-11T03:18:49.876Z,32.60
2018-12-11T03:21:23.642Z,32.60
2018-12-11T03:23:57.526Z,32.70
2018-12-11T03:26:32.040Z,32.80
2018-12-11T03:34:07.725Z,33.00
2018-12-11T03:36:41.852Z,33.10
2018-12-11T03:39:15.765Z,33.10
2018-12-11T03:41:50.102Z,33.10
2018-12-11T03:44:24.595Z,33.20
2018-12-11T03:47:00.606Z,33.30
2018-12-11T03:49:34.718Z,33.30
2018-12-11T03:52:10.235Z,33.40
2018-12-11T03:54:44.276Z,33.40
2018-12-11T03:57:18.060Z,33.40
2018-12-11T03:59:51.894Z,33.50
2018-12-11T04:02:26.184Z,33.50
2018-12-11T04:05:08.005Z,33.50
2018-12-11T04:07:43.223Z,33.60
2018-12-11T04:10:20.553Z,33.60
2018-12-11T04:12:56.633Z,33.60
2018-12-11T04:15:32.057Z,33.70
2018-12-11T04:18:06.847Z,33.70
2018-12-11T04:20:43.997Z,33.80
2018-12-11T04:23:20.501Z,33.80
2018-12-11T04:25:54.593Z,33.90
2018-12-11T04:28:30.672Z,33.90
2018-12-11T04:31:05.714Z,33.90
2018-12-11T04:33:42.427Z,33.90
2018-12-11T04:36:16.475Z,33.90
2018-12-11T04:38:50.750Z,34.00
2018-12-11T04:41:25.105Z,34.00
2018-12-11T04:43:59.162Z,34.00
2018-12-11T04:46:33.494Z,34.00
2018-12-11T04:49:08.281Z,34.00
2018-12-11T04:51:42.530Z,34.00
2018-12-11T04:54:18.843Z,34.00
2018-12-11T04:56:52.928Z,34.00
2018-12-11T04:59:26.873Z,34.00
2018-12-11T05:02:01.216Z,34.00
2018-12-11T05:04:37.002Z,34.00
2018-12-11T05:07:12.181Z,34.00
2018-12-11T05:09:46.760Z,34.00
2018-12-11T05:12:20.698Z,34.00
2018-12-11T05:14:57.337Z,34.00
2018-12-11T05:17:33.301Z,34.00
2018-12-11T05:20:07.451Z,34.00
2018-12-11T05:22:44.591Z,34.00
2018-12-11T05:25:20.414Z,34.00
2018-12-11T05:27:55.788Z,33.90
2018-12-11T05:30:35.448Z,34.00
2018-12-11T05:33:10.686Z,33.90
2018-12-11T05:35:48.729Z,33.90
2018-12-11T05:38:22.861Z,33.80
2018-12-11T05:40:56.782Z,33.80
2018-12-11T05:43:30.970Z,33.80
2018-12-11T05:46:05.479Z,33.80
2018-12-11T05:48:41.770Z,33.80
2018-12-11T05:51:16.314Z,33.90
2018-12-11T05:53:50.476Z,33.90
2018-12-11T05:56:25.283Z,33.90
2018-12-11T05:58:59.542Z,33.90
2018-12-11T06:01:33.332Z,34.00
2018-12-11T06:04:07.648Z,34.10
2018-12-11T06:06:43.184Z,34.20
2018-12-11T06:09:19.304Z,34.30
2018-12-11T06:11:53.311Z,34.40
2018-12-11T06:14:28.017Z,34.50
2018-12-11T06:17:02.068Z,34.60
2018-12-11T06:19:37.969Z,34.60
2018-12-11T06:22:11.873Z,34.70
2018-12-11T06:24:48.153Z,34.70
2018-12-11T06:27:22.230Z,34.80
2018-12-11T06:29:57.722Z,34.70
2018-12-11T06:32:31.813Z,34.70
2018-12-11T06:35:06.123Z,34.60
2018-12-11T06:37:41.295Z,34.60
2018-12-11T06:40:16.140Z,34.50
2018-12-11T06:45:30.977Z,34.40
2018-12-11T06:48:05.178Z,34.40
2018-12-11T06:50:39.473Z,34.40
2018-12-11T06:53:13.591Z,34.40
2018-12-11T06:55:49.441Z,34.30
2018-12-11T06:58:24.358Z,34.30
2018-12-11T07:00:58.668Z,34.30
2018-12-11T07:03:32.810Z,34.20
2018-12-11T07:06:07.061Z,34.30
2018-12-11T07:08:43.239Z,34.30
2018-12-11T07:11:18.578Z,34.30
2018-12-11T07:13:56.440Z,34.30
2018-12-11T07:16:30.951Z,34.30
2018-12-11T07:19:05.018Z,34.30
2018-12-11T07:21:39.739Z,34.40
2018-12-11T07:24:13.737Z,34.30
2018-12-11T07:26:50.337Z,34.30
2018-12-11T07:29:24.182Z,34.30
2018-12-11T07:32:00.600Z,34.30
2018-12-11T07:34:34.869Z,34.20
2018-12-11T07:37:09.025Z,34.10
2018-12-11T07:39:45.531Z,34.10
2018-12-11T07:42:20.529Z,34.00
2018-12-11T07:44:55.573Z,34.00
2018-12-11T07:47:35.031Z,34.00
2018-12-11T07:50:11.306Z,34.00
2018-12-11T07:52:51.026Z,34.00
2018-12-11T07:55:25.409Z,34.00
2018-12-11T07:57:59.819Z,34.00
2018-12-11T08:00:34.225Z,34.00
2018-12-11T08:03:19.810Z,34.00
2018-12-11T08:05:54.255Z,34.00
2018-12-11T08:08:29.307Z,34.10
2018-12-11T08:11:02.865Z,34.00
2018-12-11T08:13:38.137Z,34.10
2018-12-11T08:16:13.834Z,34.10
2018-12-11T08:18:56.431Z,34.20
2018-12-11T08:21:30.485Z,34.20
2018-12-11T08:24:05.843Z,34.20
2018-12-11T08:26:44.594Z,34.20
2018-12-11T08:29:23.087Z,34.30
2018-12-11T08:31:57.440Z,34.30
2018-12-11T08:34:41.044Z,34.40
2018-12-11T08:37:20.501Z,34.40
2018-12-11T08:39:56.172Z,34.40
2018-12-11T08:42:30.582Z,34.40
2018-12-11T08:45:11.969Z,34.40
2018-12-11T08:47:47.619Z,34.40
2018-12-11T08:50:22.148Z,34.30
2018-12-11T08:52:56.586Z,34.20
2018-12-11T08:55:31.332Z,34.10
2018-12-11T08:58:05.463Z,34.00
2018-12-11T09:00:40.235Z,33.90
2018-12-11T09:03:16.157Z,33.80
2018-12-11T09:05:51.284Z,33.70
2018-12-11T09:08:27.060Z,33.70
2018-12-11T09:11:08.406Z,33.60
2018-12-11T09:13:43.908Z,33.50
2018-12-11T09:16:19.011Z,33.50
2018-12-11T09:18:56.317Z,33.40
2018-12-11T09:21:30.785Z,33.30
2018-12-11T09:24:11.861Z,33.30
2018-12-11T09:26:54.443Z,33.20
2018-12-11T09:29:30.403Z,33.20
2018-12-11T09:32:17.641Z,33.10
2018-12-11T09:34:51.707Z,33.00
2018-12-11T09:37:26.512Z,33.00
2018-12-11T09:40:00.993Z,32.90
2018-12-11T09:42:37.529Z,32.80
2018-12-11T09:45:13.928Z,32.70
2018-12-11T09:47:50.287Z,32.60
2018-12-11T09:50:25.989Z,32.50
2018-12-11T09:52:59.788Z,32.50
2018-12-11T09:55:35.000Z,32.50
2018-12-11T09:58:10.925Z,32.40
2018-12-11T10:00:50.447Z,32.50
2018-12-11T10:03:26.966Z,32.50
2018-12-11T10:06:01.073Z,32.40
2018-12-11T10:08:38.888Z,32.40
2018-12-11T10:11:13.293Z,32.30
2018-12-11T10:13:48.090Z,32.30
2018-12-11T10:16:21.973Z,32.20
2018-12-11T10:18:56.486Z,32.20
2018-12-11T10:21:29.989Z,32.10
2018-12-11T10:26:59.983Z,32.00
2018-12-11T10:29:34.961Z,32.00
2018-12-11T10:34:51.276Z,31.90
2018-12-11T10:37:28.619Z,31.90
2018-12-11T10:40:03.360Z,31.80
2018-12-11T10:42:36.970Z,31.80
2018-12-11T10:45:11.572Z,31.80
2018-12-11T10:47:46.579Z,31.80
2018-12-11T10:50:20.583Z,31.80
2018-12-11T10:52:54.836Z,31.80
2018-12-11T10:55:29.016Z,31.70
2018-12-11T10:58:02.562Z,31.70
2018-12-11T11:00:40.169Z,31.70
2018-12-11T11:03:14.122Z,31.70
2018-12-11T11:05:48.705Z,31.70
2018-12-11T11:08:27.613Z,31.70
2018-12-11T11:11:06.059Z,31.60
2018-12-11T11:13:42.449Z,31.60
2018-12-11T11:16:16.740Z,31.60
2018-12-11T11:18:50.854Z,31.60
2018-12-11T11:21:25.722Z,31.60
2018-12-11T11:23:59.917Z,31.60
2018-12-11T11:26:35.834Z,31.60
2018-12-11T11:29:10.112Z,31.60
2018-12-11T11:31:46.371Z,31.60
2018-12-11T11:34:20.530Z,31.60
2018-12-11T11:36:58.707Z,31.60
2018-12-11T11:39:39.576Z,31.60
2018-12-11T11:42:15.153Z,31.60
2018-12-11T11:44:50.879Z,31.60
2018-12-11T11:47:45.428Z,31.50
2018-12-11T11:50:23.404Z,31.50
2018-12-11T11:52:58.637Z,31.40
2018-12-11T11:55:33.815Z,31.40
2018-12-11T11:58:07.595Z,31.30
2018-12-11T12:00:43.989Z,31.30
2018-12-11T12:03:20.494Z,31.30
2018-12-11T12:06:02.167Z,31.30
2018-12-11T12:08:36.541Z,31.30
2018-12-11T12:11:10.703Z,31.30
2018-12-11T12:13:44.710Z,31.30
2018-12-11T12:16:18.847Z,31.30
2018-12-11T12:18:52.729Z,31.30
2018-12-11T12:21:30.370Z,31.30
2018-12-11T12:24:06.701Z,31.30
2018-12-11T12:26:40.962Z,31.40
2018-12-11T12:29:15.132Z,31.40
2018-12-11T12:31:51.474Z,31.40
2018-12-11T12:34:27.891Z,31.40
2018-12-11T12:37:01.965Z,31.40
2018-12-11T12:39:36.488Z,31.40
2018-12-11T12:42:11.114Z,31.40
2018-12-11T12:44:45.044Z,31.40
2018-12-11T12:47:19.081Z,31.40
2018-12-11T12:49:52.765Z,31.40
2018-12-11T12:52:26.938Z,31.30
2018-12-11T12:55:00.559Z,31.30
2018-12-11T12:57:34.676Z,31.30
2018-12-11T13:00:10.322Z,31.30
2018-12-11T13:02:49.942Z,31.30
2018-12-11T13:05:35.446Z,31.20
2018-12-11T13:08:13.483Z,31.20
2018-12-11T13:10:52.401Z,31.20
2018-12-11T13:13:26.673Z,31.10
2018-12-11T13:16:01.617Z,31.10
2018-12-11T13:18:36.528Z,31.00
2018-12-11T13:21:26.130Z,31.00
2018-12-11T13:23:59.885Z,31.00
2018-12-11T13:26:38.938Z,30.90
2018-12-11T13:29:17.168Z,30.80
2018-12-11T13:31:51.200Z,30.80
2018-12-11T13:34:25.514Z,30.70
2018-12-11T13:37:04.740Z,30.70
2018-12-11T13:39:39.162Z,30.70
2018-12-11T13:42:13.535Z,30.70
2018-12-11T13:44:47.317Z,30.70
2018-12-11T13:47:21.988Z,30.70
2018-12-11T13:49:59.793Z,30.70
2018-12-11T13:52:35.772Z,30.70
2018-12-11T13:55:09.552Z,30.70
2018-12-11T13:57:43.598Z,30.70
2018-12-11T14:00:17.733Z,30.70
2018-12-11T14:02:51.959Z,30.70
2018-12-11T14:05:27.681Z,30.70
2018-12-11T14:08:02.066Z,30.70
2018-12-11T14:10:35.895Z,30.70
2018-12-11T14:13:11.417Z,30.70
2018-12-11T14:15:45.556Z,30.70
2018-12-11T14:18:25.545Z,30.80
2018-12-11T14:21:00.142Z,30.80
2018-12-11T14:23:34.043Z,30.80
2018-12-11T14:26:07.987Z,30.80
2018-12-11T14:28:42.342Z,30.80
2018-12-11T14:31:19.509Z,30.70
2018-12-11T14:33:54.254Z,30.70
2018-12-11T14:36:28.290Z,30.70
2018-12-11T14:39:03.169Z,30.60
2018-12-11T14:41:39.689Z,30.60
2018-12-11T14:44:14.334Z,30.60
2018-12-11T14:46:48.377Z,30.50
2018-12-11T14:49:23.758Z,30.50
2018-12-11T14:52:01.638Z,30.50
2018-12-11T14:54:37.142Z,30.40
2018-12-11T14:57:11.285Z,30.40
2018-12-11T14:59:45.482Z,30.40
2018-12-11T15:02:22.458Z,30.40
2018-12-11T15:04:56.339Z,30.30
2018-12-11T15:07:30.484Z,30.40
2018-12-11T15:10:06.134Z,30.30
2018-12-11T15:12:41.389Z,30.40
2018-12-11T15:15:16.140Z,30.30
2018-12-11T15:17:50.205Z,30.30
2018-12-11T15:20:24.043Z,30.30
2018-12-11T15:22:57.980Z,30.20
2018-12-11T15:25:33.715Z,30.20
2018-12-11T15:28:08.948Z,30.20
2018-12-11T15:30:43.950Z,30.10
2018-12-11T15:33:17.558Z,30.10
2018-12-11T15:35:52.051Z,30.10
2018-12-11T15:38:26.210Z,30.00
2018-12-11T15:41:01.125Z,30.00
2018-12-11T15:43:36.468Z,30.00
2018-12-11T15:46:10.646Z,30.00
2018-12-11T15:48:45.046Z,30.00
2018-12-11T15:51:19.114Z,30.00
2018-12-11T15:53:55.217Z,30.00
2018-12-11T15:56:29.313Z,30.00
2018-12-11T15:59:03.341Z,30.00
2018-12-11T16:01:38.144Z,30.00
2018-12-11T16:04:14.134Z,30.00
2018-12-11T16:06:48.226Z,30.00
2018-12-11T16:09:25.944Z,30.00
2018-12-11T16:11:59.729Z,30.00
2018-12-11T16:14:34.749Z,30.00
2018-12-11T16:17:08.840Z,30.00
2018-12-11T16:19:43.754Z,30.00
2018-12-11T16:22:17.857Z,30.00
2018-12-11T16:24:52.528Z,30.00
2018-12-11T16:27:27.628Z,30.00
2018-12-11T16:30:01.945Z,30.00
2018-12-11T16:32:35.907Z,30.00
2018-12-11T16:35:11.705Z,30.00
2018-12-11T16:37:46.143Z,30.00
2018-12-11T16:40:21.698Z,30.00
2018-12-11T16:42:56.705Z,30.00
2018-12-11T16:45:31.169Z,30.00
2018-12-11T16:48:05.105Z,30.00
2018-12-11T16:50:39.331Z,30.00
2018-12-11T16:53:14.233Z,30.00
2018-12-11T16:55:48.408Z,30.00
2018-12-11T16:58:22.572Z,30.00
2018-12-11T17:00:57.271Z,30.00
2018-12-11T17:03:31.079Z,30.00
2018-12-11T17:06:04.870Z,30.00
2018-12-11T17:08:39.001Z,30.00
2018-12-11T17:11:13.336Z,30.00
2018-12-11T17:13:48.308Z,30.00
2018-12-11T17:16:22.568Z,29.90
2018-12-11T17:18:56.233Z,30.00
2018-12-11T17:21:31.280Z,30.00
2018-12-11T17:24:05.961Z,30.00
2018-12-11T17:26:40.209Z,30.00
2018-12-11T17:29:15.954Z,29.90
2018-12-11T17:31:49.807Z,30.00
2018-12-11T17:34:23.955Z,30.00
2018-12-11T17:36:57.536Z,30.00
2018-12-11T17:39:31.740Z,30.00
2018-12-11T17:42:05.858Z,30.00
2018-12-11T17:44:41.587Z,30.00
2018-12-11T17:47:15.474Z,30.00
2018-12-11T17:49:49.902Z,29.90
2018-12-11T17:52:23.932Z,29.90
2018-12-11T17:54:58.107Z,29.90
2018-12-11T17:57:32.235Z,29.90
2018-12-11T18:00:06.578Z,29.90
2018-12-11T18:02:41.541Z,29.90
2018-12-11T18:05:15.512Z,29.90
2018-12-11T18:07:49.204Z,29.90
2018-12-11T18:10:23.095Z,29.90
2018-12-11T18:12:58.633Z,29.90
2018-12-11T18:15:32.675Z,29.90
2018-12-11T18:18:07.174Z,29.90
2018-12-11T18:20:43.430Z,29.90
2018-12-11T18:23:17.576Z,29.90
2018-12-11T18:25:51.971Z,29.90
2018-12-11T18:28:26.987Z,29.90
2018-12-11T18:31:01.221Z,29.90
2018-12-11T18:33:35.418Z,29.90
2018-12-11T18:36:10.880Z,29.90
2018-12-11T18:38:46.391Z,29.90
2018-12-11T18:41:20.546Z,29.90
2018-12-11T18:43:54.698Z,29.90
2018-12-11T18:46:30.698Z,29.90
2018-12-11T18:49:07.183Z,29.90
2018-12-11T18:51:41.515Z,29.90
2018-12-11T18:54:15.693Z,29.90
2018-12-11T18:56:49.754Z,29.90
2018-12-11T18:59:23.897Z,29.90
2018-12-11T19:01:59.177Z,29.90
2018-12-11T19:04:34.498Z,29.90
2018-12-11T19:09:46.626Z,29.90
2018-12-11T19:12:20.712Z,29.90
2018-12-11T19:14:55.869Z,29.90
2018-12-11T19:17:30.151Z,29.90
2018-12-11T19:20:04.877Z,29.90
2018-12-11T19:22:39.367Z,29.90
2018-12-11T19:25:18.117Z,29.90
2018-12-11T19:27:53.477Z,29.90
2018-12-11T19:30:28.451Z,29.90
2018-12-11T19:33:03.219Z,29.90
2018-12-11T19:35:37.647Z,29.90
2018-12-11T19:38:11.968Z,29.90
2018-12-11T19:40:47.913Z,29.80
2018-12-11T19:43:22.897Z,29.80
2018-12-11T19:45:56.919Z,29.90
2018-12-11T19:48:32.424Z,29.90
2018-12-11T19:51:06.703Z,29.90
2018-12-11T19:53:40.724Z,29.90
2018-12-11T19:56:15.128Z,29.80
2018-12-11T19:58:50.096Z,29.90
2018-12-11T20:01:24.551Z,29.90
2018-12-11T20:03:58.591Z,29.90
2018-12-11T20:06:34.223Z,29.90
2018-12-11T20:09:09.561Z,29.90
2018-12-11T20:11:43.737Z,29.90
2018-12-11T20:14:18.030Z,29.90
2018-12-11T20:16:53.738Z,29.90
2018-12-11T20:19:28.004Z,29.90
2018-12-11T20:22:03.183Z,29.90
2018-12-11T20:24:37.256Z,29.90
2018-12-11T20:27:11.164Z,29.90
2018-12-11T20:29:45.349Z,29.90
2018-12-11T20:32:20.554Z,29.90
2018-12-11T20:34:54.755Z,29.90
2018-12-11T20:37:28.695Z,29.90
2018-12-11T20:40:02.991Z,29.90
2018-12-11T20:42:36.937Z,29.90
2018-12-11T20:45:10.975Z,29.90
2018-12-11T20:47:46.109Z,29.90
2018-12-11T20:50:21.437Z,29.90
2018-12-11T20:52:56.242Z,29.80
2018-12-11T20:55:30.101Z,29.80
2018-12-11T20:58:05.339Z,29.80
2018-12-11T21:00:40.735Z,29.70
2018-12-11T21:03:14.946Z,29.70
2018-12-11T21:05:49.152Z,29.70
2018-12-11T21:08:25.786Z,29.70
2018-12-11T21:11:00.471Z,29.60
2018-12-11T21:13:34.769Z,29.60
2018-12-11T21:16:11.080Z,29.60
2018-12-11T21:18:45.441Z,29.60
2018-12-11T21:21:19.869Z,29.60
2018-12-11T21:23:55.209Z,29.60
2018-12-11T21:26:29.200Z,29.60
2018-12-11T21:29:03.825Z,29.60
2018-12-11T21:31:39.152Z,29.60
2018-12-11T21:34:14.151Z,29.60
2018-12-11T21:36:49.107Z,29.60
2018-12-11T21:39:23.047Z,29.60
2018-12-11T21:41:57.258Z,29.60
2018-12-11T21:44:31.324Z,29.60
2018-12-11T21:47:05.570Z,29.60
2018-12-11T21:49:39.666Z,29.60
2018-12-11T21:52:15.940Z,29.60
2018-12-11T21:54:49.671Z,29.60
2018-12-11T21:57:23.429Z,29.60
2018-12-11T21:59:57.893Z,29.60
2018-12-11T22:02:32.162Z,29.60
2018-12-11T22:05:07.143Z,29.60
2018-12-11T22:10:22.811Z,29.60
2018-12-11T22:12:57.974Z,29.60
2018-12-11T22:15:31.948Z,29.60
2018-12-11T22:18:05.933Z,29.60
2018-12-11T22:20:39.927Z,29.60
2018-12-11T22:23:14.645Z,29.60
2018-12-11T22:25:48.911Z,29.60
2018-12-11T22:28:23.008Z,29.60
2018-12-11T22:30:58.083Z,29.70
2018-12-11T22:33:33.252Z,29.70
2018-12-11T22:36:07.818Z,29.70
2018-12-11T22:38:50.053Z,29.70
2018-12-11T22:41:24.366Z,29.70
2018-12-11T22:43:59.789Z,29.70
2018-12-11T22:46:34.896Z,29.70
2018-12-11T22:49:09.024Z,29.70
2018-12-11T22:51:43.585Z,29.70
2018-12-11T22:54:18.890Z,29.70
2018-12-11T22:56:55.393Z,29.70
2018-12-11T22:59:29.932Z,29.70
2018-12-11T23:02:04.951Z,29.60
2018-12-11T23:04:41.621Z,29.60
2018-12-11T23:07:15.715Z,29.60
2018-12-11T23:09:49.587Z,29.60
2018-12-11T23:12:24.348Z,29.60
2018-12-11T23:15:00.947Z,29.60
2018-12-11T23:17:44.204Z,29.60
2018-12-11T23:20:19.588Z,29.60
2018-12-11T23:22:53.837Z,29.60
2018-12-11T23:25:28.029Z,29.60
2018-12-11T23:28:03.387Z,29.60
2018-12-11T23:30:38.310Z,29.60
2018-12-11T23:33:12.804Z,29.60
2018-12-11T23:35:49.225Z,29.60
2018-12-11T23:38:23.532Z,29.60
2018-12-11T23:40:58.518Z,29.60
2018-12-11T23:43:32.305Z,29.60
2018-12-11T23:46:08.455Z,29.60
2018-12-11T23:48:42.901Z,29.60
2018-12-11T23:51:16.999Z,29.60
2018-12-11T23:53:51.260Z,29.60
2018-12-11T23:56:26.188Z,29.60
2018-12-11T23:59:03.674Z,29.60
